createdAt,value
2017-10-13T00:00:09.917Z,978.23
2017-10-13T00:01:09.912Z,978.21
2017-10-13T00:02:09.905Z,978.22
2017-10-13T00:03:09.901Z,978.21
2017-10-13T00:04:09.894Z,978.22
2017-10-13T00:05:09.894Z,978.24
2017-10-13T00:06:09.880Z,978.24
2017-10-13T00:07:09.875Z,978.27
2017-10-13T00:08:09.867Z,978.26
2017-10-13T00:09:09.861Z,978.24
2017-10-13T00:10:09.856Z,978.24
2017-10-13T00:11:09.848Z,978.2
2017-10-13T00:12:09.843Z,978.21
2017-10-13T00:13:09.838Z,978.21
2017-10-13T00:14:09.830Z,978.17
2017-10-13T00:15:09.824Z,978.2
2017-10-13T00:16:09.819Z,978.17
2017-10-13T00:17:09.811Z,978.15
2017-10-13T00:18:09.809Z,978.16
2017-10-13T00:19:09.799Z,978.16
2017-10-13T00:20:09.793Z,978.19
2017-10-13T00:21:09.788Z,978.15
2017-10-13T00:22:09.780Z,978.16
2017-10-13T00:23:09.773Z,978.18
2017-10-13T00:24:09.767Z,978.19
2017-10-13T00:25:09.761Z,978.18
2017-10-13T00:26:09.755Z,978.21
2017-10-13T00:27:09.750Z,978.17
2017-10-13T00:28:09.743Z,978.19
2017-10-13T00:29:09.735Z,978.21
2017-10-13T00:30:09.730Z,978.24
2017-10-13T00:31:09.724Z,978.22
2017-10-13T00:32:09.717Z,978.23
2017-10-13T00:33:09.712Z,978.23
2017-10-13T00:34:09.704Z,978.23
2017-10-13T00:35:09.698Z,978.21
2017-10-13T00:36:09.693Z,978.22
2017-10-13T00:37:09.686Z,978.19
2017-10-13T00:38:09.680Z,978.19
2017-10-13T00:39:09.675Z,978.2
2017-10-13T00:40:09.678Z,978.2
2017-10-13T00:41:09.662Z,978.22
2017-10-13T00:42:09.656Z,978.19
2017-10-13T00:43:09.649Z,978.19
2017-10-13T00:44:09.643Z,978.2
2017-10-13T00:45:09.636Z,978.21
2017-10-13T00:46:09.630Z,978.16
2017-10-13T00:47:09.625Z,978.16
2017-10-13T00:48:09.617Z,978.18
2017-10-13T00:49:09.614Z,978.18
2017-10-13T00:50:09.604Z,978.17
2017-10-13T00:51:09.597Z,978.17
2017-10-13T00:52:09.591Z,978.17
2017-10-13T00:53:09.585Z,978.16
2017-10-13T00:54:09.580Z,978.15
2017-10-13T00:55:09.574Z,978.13
2017-10-13T00:56:09.566Z,978.15
2017-10-13T00:57:09.561Z,978.16
2017-10-13T00:58:09.553Z,978.15
2017-10-13T01:02:55.859Z,978.14
2017-10-13T01:03:55.854Z,978.14
2017-10-13T01:04:55.848Z,978.13
2017-10-13T01:05:55.843Z,978.1
2017-10-13T01:06:55.835Z,978.17
2017-10-13T01:07:55.830Z,978.14
2017-10-13T01:08:55.824Z,978.08
2017-10-13T01:09:55.818Z,978.13
2017-10-13T01:10:55.811Z,978.15
2017-10-13T01:11:55.805Z,978.16
2017-10-13T01:12:55.798Z,978.16
2017-10-13T01:13:55.791Z,978.15
2017-10-13T01:14:55.785Z,978.13
2017-10-13T01:15:55.779Z,978.09
2017-10-13T01:16:55.774Z,978.1
2017-10-13T01:17:55.766Z,978.1
2017-10-13T01:18:55.760Z,978.08
2017-10-13T01:19:55.754Z,978.11
2017-10-13T01:20:55.749Z,978.11
2017-10-13T01:21:55.746Z,978.14
2017-10-13T01:22:55.735Z,978.14
2017-10-13T01:23:55.730Z,978.14
2017-10-13T01:24:55.721Z,978.14
2017-10-13T01:25:55.715Z,978.12
2017-10-13T01:26:55.711Z,978.13
2017-10-13T01:27:55.703Z,978.13
2017-10-13T01:28:55.698Z,978.16
2017-10-13T01:29:55.693Z,978.14
2017-10-13T01:30:55.685Z,978.12
2017-10-13T01:31:55.678Z,978.16
2017-10-13T01:32:55.689Z,978.12
2017-10-13T01:33:55.665Z,978.11
2017-10-13T01:34:55.658Z,978.11
2017-10-13T01:35:55.651Z,978.13
2017-10-13T01:36:55.646Z,978.13
2017-10-13T01:37:55.640Z,978.16
2017-10-13T01:38:55.631Z,978.11
2017-10-13T01:39:55.626Z,978.11
2017-10-13T01:40:55.628Z,978.12
2017-10-13T01:41:55.613Z,978.15
2017-10-13T01:42:55.607Z,978.12
2017-10-13T01:43:55.602Z,978.13
2017-10-13T01:44:55.596Z,978.13
2017-10-13T01:45:55.588Z,978.13
2017-10-13T01:46:55.583Z,978.09
2017-10-13T01:47:55.575Z,978.09
2017-10-13T01:48:55.569Z,978.13
2017-10-13T01:49:55.562Z,978.12
2017-10-13T01:50:55.557Z,978.1
2017-10-13T01:51:55.558Z,978.09
2017-10-13T01:52:55.544Z,978.06
2017-10-13T01:53:55.573Z,978.06
2017-10-13T01:54:55.534Z,978.1
2017-10-13T01:55:55.525Z,978.08
2017-10-13T01:56:55.523Z,978.08
2017-10-13T01:57:55.521Z,978.12
2017-10-13T01:58:55.506Z,978.07
2017-10-13T01:59:55.498Z,978.04
2017-10-13T02:00:55.492Z,978.05
2017-10-13T02:01:55.487Z,978.03
2017-10-13T02:02:55.480Z,978.08
2017-10-13T02:03:55.475Z,978.06
2017-10-13T02:04:55.468Z,978.05
2017-10-13T02:05:55.462Z,978.06
2017-10-13T02:06:55.455Z,978.08
2017-10-13T02:07:55.449Z,978.04
2017-10-13T02:08:55.442Z,978.05
2017-10-13T02:09:55.435Z,978.06
2017-10-13T02:10:55.430Z,978.04
2017-10-13T02:11:55.424Z,978.06
2017-10-13T02:12:55.416Z,978.07
2017-10-13T02:13:55.410Z,978.06
2017-10-13T02:14:55.404Z,978.04
2017-10-13T02:15:55.398Z,978.08
2017-10-13T02:16:55.391Z,978.05
2017-10-13T02:17:55.385Z,978.09
2017-10-13T02:18:55.379Z,978.08
2017-10-13T02:19:55.374Z,978.08
2017-10-13T02:20:55.366Z,978.1
2017-10-13T02:21:55.359Z,978.1
2017-10-13T02:22:55.351Z,978.11
2017-10-13T02:23:55.346Z,978.09
2017-10-13T02:24:55.347Z,978.13
2017-10-13T02:25:55.334Z,978.11
2017-10-13T02:26:55.327Z,978.11
2017-10-13T02:27:55.321Z,978.14
2017-10-13T02:28:55.315Z,978.12
2017-10-13T02:29:55.309Z,978.14
2017-10-13T02:30:55.303Z,978.11
2017-10-13T02:31:55.295Z,978.13
2017-10-13T02:32:55.288Z,978.13
2017-10-13T02:33:55.281Z,978.14
2017-10-13T02:34:55.276Z,978.1
2017-10-13T02:35:55.270Z,978.11
2017-10-13T02:36:55.270Z,978.11
2017-10-13T02:37:55.256Z,978.11
2017-10-13T02:38:55.252Z,978.06
2017-10-13T02:39:55.245Z,978.09
2017-10-13T02:40:55.239Z,978.05
2017-10-13T02:41:55.232Z,978.05
2017-10-13T02:42:55.227Z,978.09
2017-10-13T02:43:55.221Z,978.06
2017-10-13T02:44:55.213Z,978.09
2017-10-13T02:45:55.209Z,978.07
2017-10-13T02:46:55.202Z,978.05
2017-10-13T02:47:55.194Z,978.05
2017-10-13T02:48:55.188Z,978.07
2017-10-13T02:49:55.181Z,978.06
2017-10-13T02:50:55.176Z,978.03
2017-10-13T02:51:55.169Z,978.03
2017-10-13T02:52:55.163Z,978.05
2017-10-13T02:53:55.157Z,978.04
2017-10-13T02:54:55.149Z,978.05
2017-10-13T02:55:55.142Z,978.01
2017-10-13T02:56:55.137Z,978.02
2017-10-13T02:57:55.131Z,978.02
2017-10-13T02:58:55.123Z,978.02
2017-10-13T02:59:55.117Z,978.07
2017-10-13T03:00:55.110Z,978.06
2017-10-13T03:01:55.105Z,978.04
2017-10-13T03:02:55.099Z,978.04
2017-10-13T03:03:55.092Z,978.05
2017-10-13T03:04:55.087Z,978.02
2017-10-13T03:05:55.080Z,978
2017-10-13T03:06:55.075Z,978.03
2017-10-13T03:07:55.067Z,978.05
2017-10-13T03:08:55.060Z,978.08
2017-10-13T03:09:55.054Z,978.05
2017-10-13T03:10:55.047Z,978.05
2017-10-13T03:11:55.041Z,978.04
2017-10-13T03:12:55.034Z,978.05
2017-10-13T03:13:55.028Z,978.05
2017-10-13T03:14:55.022Z,978.03
2017-10-13T03:15:55.015Z,978.05
2017-10-13T03:16:55.009Z,978.03
2017-10-13T03:17:55.003Z,978.01
2017-10-13T03:18:54.996Z,978.03
2017-10-13T03:19:54.989Z,978.02
2017-10-13T03:20:54.983Z,978.03
2017-10-13T03:21:54.977Z,978.04
2017-10-13T03:22:54.971Z,978.05
2017-10-13T03:23:54.964Z,978.07
2017-10-13T03:24:54.957Z,978.05
2017-10-13T03:25:54.950Z,978.04
2017-10-13T03:26:54.945Z,978.06
2017-10-13T03:27:54.937Z,978.07
2017-10-13T03:28:54.932Z,978.08
2017-10-13T03:29:54.926Z,978.06
2017-10-13T03:30:54.919Z,978.09
2017-10-13T03:31:54.912Z,978.1
2017-10-13T03:32:54.905Z,978.09
2017-10-13T03:33:54.900Z,978.1
2017-10-13T03:34:54.893Z,978.06
2017-10-13T03:35:54.885Z,978.11
2017-10-13T03:36:54.881Z,978.08
2017-10-13T03:37:54.874Z,978.11
2017-10-13T03:38:54.869Z,978.09
2017-10-13T03:39:54.861Z,978.08
2017-10-13T03:40:54.855Z,978.08
2017-10-13T03:41:54.864Z,978.08
2017-10-13T03:42:54.842Z,978.08
2017-10-13T03:43:54.835Z,978.08
2017-10-13T03:44:54.828Z,978.06
2017-10-13T03:45:54.823Z,978.06
2017-10-13T03:46:54.816Z,978.04
2017-10-13T03:47:54.809Z,978.07
2017-10-13T03:48:54.803Z,978.06
2017-10-13T03:49:54.802Z,978.04
2017-10-13T03:50:54.790Z,978.07
2017-10-13T03:51:54.783Z,978.02
2017-10-13T03:52:54.780Z,978.05
2017-10-13T03:53:54.772Z,978.05
2017-10-13T03:54:54.765Z,978.06
2017-10-13T03:55:54.763Z,978.08
2017-10-13T03:56:54.751Z,978.04
2017-10-13T03:57:54.745Z,978.04
2017-10-13T03:58:54.738Z,978.07
2017-10-13T03:59:54.733Z,978.03
2017-10-13T04:00:54.727Z,978.07
2017-10-13T04:01:54.719Z,978.04
2017-10-13T04:02:54.713Z,978.07
2017-10-13T04:03:54.708Z,978.06
2017-10-13T04:04:54.701Z,978.08
2017-10-13T04:05:54.692Z,978.06
2017-10-13T04:06:54.686Z,978.07
2017-10-13T04:07:54.683Z,978.06
2017-10-13T04:08:54.674Z,978.05
2017-10-13T04:09:54.669Z,978.07
2017-10-13T04:10:54.665Z,978.06
2017-10-13T04:11:54.655Z,978.07
2017-10-13T04:12:54.648Z,978.06
2017-10-13T04:13:54.643Z,978.08
2017-10-13T04:14:54.636Z,978.07
2017-10-13T04:15:54.629Z,978.07
2017-10-13T04:16:54.624Z,978.07
2017-10-13T04:17:54.617Z,978
2017-10-13T04:18:54.612Z,978.01
2017-10-13T04:19:54.602Z,978.03
2017-10-13T04:20:54.598Z,978.01
2017-10-13T04:21:54.590Z,978.03
2017-10-13T04:22:54.585Z,978.02
2017-10-13T04:23:54.577Z,978.04
2017-10-13T04:24:54.571Z,978.02
2017-10-13T04:25:54.564Z,978.06
2017-10-13T04:26:54.558Z,978.08
2017-10-13T04:27:54.551Z,978.05
2017-10-13T04:28:54.545Z,978.06
2017-10-13T04:29:54.540Z,978.1
2017-10-13T04:30:54.533Z,978.06
2017-10-13T04:31:54.527Z,978.06
2017-10-13T04:32:54.519Z,978.08
2017-10-13T04:33:54.512Z,978.07
2017-10-13T04:34:54.505Z,978.11
2017-10-13T04:35:54.499Z,978.08
2017-10-13T04:36:54.493Z,978.1
2017-10-13T04:37:54.487Z,978.1
2017-10-13T04:38:54.483Z,978.13
2017-10-13T04:39:54.475Z,978.08
2017-10-13T04:40:54.466Z,978.1
2017-10-13T04:41:54.458Z,978.11
2017-10-13T04:42:54.454Z,978.09
2017-10-13T04:43:54.454Z,978.08
2017-10-13T04:44:54.442Z,978.04
2017-10-13T04:45:54.433Z,978.07
2017-10-13T04:46:54.427Z,978.02
2017-10-13T04:47:54.421Z,978.04
2017-10-13T04:48:54.414Z,978.06
2017-10-13T04:49:54.407Z,978.07
2017-10-13T04:50:54.401Z,978.06
2017-10-13T04:51:54.395Z,978.09
2017-10-13T04:52:54.388Z,978.09
2017-10-13T04:53:54.382Z,978.1
2017-10-13T04:54:54.374Z,978.08
2017-10-13T04:55:54.369Z,978.08
2017-10-13T04:56:54.361Z,978.07
2017-10-13T04:57:54.358Z,978.08
2017-10-13T04:58:54.349Z,978.08
2017-10-13T04:59:54.341Z,978.12
2017-10-13T05:00:54.336Z,978.13
2017-10-13T05:01:54.329Z,978.13
2017-10-13T05:02:54.323Z,978.15
2017-10-13T05:03:54.316Z,978.14
2017-10-13T05:04:54.310Z,978.15
2017-10-13T05:05:54.304Z,978.15
2017-10-13T05:06:54.297Z,978.17
2017-10-13T05:07:54.289Z,978.17
2017-10-13T05:08:54.283Z,978.15
2017-10-13T05:09:54.277Z,978.16
2017-10-13T05:10:54.270Z,978.13
2017-10-13T05:11:54.263Z,978.18
2017-10-13T05:12:54.256Z,978.17
2017-10-13T05:13:54.251Z,978.16
2017-10-13T05:14:54.244Z,978.19
2017-10-13T05:15:54.237Z,978.17
2017-10-13T05:16:54.231Z,978.18
2017-10-13T05:17:54.224Z,978.21
2017-10-13T05:18:54.217Z,978.16
2017-10-13T05:19:54.211Z,978.17
2017-10-13T05:20:54.204Z,978.17
2017-10-13T05:21:54.197Z,978.16
2017-10-13T05:22:54.190Z,978.14
2017-10-13T05:23:54.184Z,978.18
2017-10-13T05:24:54.179Z,978.13
2017-10-13T05:25:54.171Z,978.17
2017-10-13T05:26:54.166Z,978.17
2017-10-13T05:27:54.158Z,978.15
2017-10-13T05:28:54.153Z,978.17
2017-10-13T05:29:54.148Z,978.2
2017-10-13T05:30:54.138Z,978.15
2017-10-13T05:31:54.131Z,978.14
2017-10-13T05:32:54.125Z,978.14
2017-10-13T05:33:54.119Z,978.15
2017-10-13T05:34:54.112Z,978.16
2017-10-13T05:35:54.106Z,978.15
2017-10-13T05:36:54.099Z,978.13
2017-10-13T05:37:54.093Z,978.14
2017-10-13T05:38:54.087Z,978.19
2017-10-13T05:39:54.080Z,978.2
2017-10-13T05:40:54.073Z,978.2
2017-10-13T05:41:54.066Z,978.23
2017-10-13T05:42:54.059Z,978.23
2017-10-13T05:43:54.053Z,978.22
2017-10-13T05:44:54.046Z,978.19
2017-10-13T05:45:54.040Z,978.21
2017-10-13T05:46:54.034Z,978.21
2017-10-13T05:47:54.044Z,978.23
2017-10-13T05:48:54.019Z,978.26
2017-10-13T05:49:54.014Z,978.23
2017-10-13T05:50:54.007Z,978.22
2017-10-13T05:51:53.999Z,978.25
2017-10-13T05:52:53.998Z,978.24
2017-10-13T05:53:53.988Z,978.27
2017-10-13T05:54:53.981Z,978.25
2017-10-13T05:55:53.974Z,978.3
2017-10-13T05:56:53.969Z,978.3
2017-10-13T05:57:53.962Z,978.28
2017-10-13T05:58:53.954Z,978.32
2017-10-13T05:59:53.949Z,978.29
2017-10-13T06:00:53.941Z,978.35
2017-10-13T06:01:53.937Z,978.3
2017-10-13T06:02:53.927Z,978.3
2017-10-13T06:03:53.922Z,978.31
2017-10-13T06:04:53.915Z,978.33
2017-10-13T06:05:53.923Z,978.3
2017-10-13T06:06:53.902Z,978.29
2017-10-13T06:07:53.899Z,978.31
2017-10-13T06:08:53.888Z,978.31
2017-10-13T06:09:53.883Z,978.36
2017-10-13T06:10:53.875Z,978.32
2017-10-13T06:11:53.867Z,978.34
2017-10-13T06:12:53.861Z,978.31
2017-10-13T06:13:53.854Z,978.34
2017-10-13T06:14:53.847Z,978.36
2017-10-13T06:15:53.844Z,978.33
2017-10-13T06:16:53.835Z,978.32
2017-10-13T06:17:53.829Z,978.36
2017-10-13T06:18:53.823Z,978.31
2017-10-13T06:19:53.815Z,978.36
2017-10-13T06:20:53.807Z,978.35
2017-10-13T06:21:53.802Z,978.4
2017-10-13T06:22:53.796Z,978.37
2017-10-13T06:23:53.788Z,978.36
2017-10-13T06:24:53.782Z,978.38
2017-10-13T06:25:53.775Z,978.4
2017-10-13T06:26:53.768Z,978.47
2017-10-13T06:27:53.761Z,978.44
2017-10-13T06:28:53.757Z,978.48
2017-10-13T06:29:53.750Z,978.51
2017-10-13T06:30:53.742Z,978.51
2017-10-13T06:31:53.735Z,978.48
2017-10-13T06:32:53.728Z,978.51
2017-10-13T06:33:53.723Z,978.49
2017-10-13T06:34:53.717Z,978.51
2017-10-13T06:35:53.708Z,978.51
2017-10-13T06:36:53.702Z,978.52
2017-10-13T06:37:53.696Z,978.55
2017-10-13T06:38:53.687Z,978.51
2017-10-13T06:39:53.683Z,978.56
2017-10-13T06:40:53.676Z,978.53
2017-10-13T06:41:53.669Z,978.54
2017-10-13T06:42:53.663Z,978.61
2017-10-13T06:43:53.656Z,978.6
2017-10-13T06:44:53.651Z,978.61
2017-10-13T06:45:53.642Z,978.61
2017-10-13T06:46:53.636Z,978.61
2017-10-13T06:47:53.628Z,978.62
2017-10-13T06:48:53.622Z,978.64
2017-10-13T06:49:53.634Z,978.64
2017-10-13T06:50:53.609Z,978.65
2017-10-13T06:51:53.603Z,978.65
2017-10-13T06:52:53.597Z,978.64
2017-10-13T06:53:53.588Z,978.64
2017-10-13T06:54:53.582Z,978.68
2017-10-13T06:55:53.575Z,978.68
2017-10-13T06:56:53.568Z,978.71
2017-10-13T06:57:53.562Z,978.71
2017-10-13T06:58:53.556Z,978.72
2017-10-13T06:59:53.550Z,978.7
2017-10-13T07:00:53.541Z,978.71
2017-10-13T07:01:53.537Z,978.72
2017-10-13T07:02:53.528Z,978.73
2017-10-13T07:03:53.523Z,978.71
2017-10-13T07:04:53.515Z,978.73
2017-10-13T07:05:53.509Z,978.76
2017-10-13T07:06:53.502Z,978.75
2017-10-13T07:07:53.496Z,978.79
2017-10-13T07:08:53.490Z,978.78
2017-10-13T07:09:53.482Z,978.81
2017-10-13T07:10:53.476Z,978.82
2017-10-13T07:11:53.471Z,978.82
2017-10-13T07:12:53.462Z,978.85
2017-10-13T07:13:53.456Z,978.85
2017-10-13T07:14:53.451Z,978.88
2017-10-13T07:15:53.441Z,978.88
2017-10-13T07:16:53.436Z,978.87
2017-10-13T07:17:53.430Z,978.91
2017-10-13T07:18:53.423Z,978.93
2017-10-13T07:19:53.416Z,978.9
2017-10-13T07:20:53.409Z,978.9
2017-10-13T07:21:53.407Z,978.9
2017-10-13T07:22:53.395Z,978.89
2017-10-13T07:23:53.391Z,978.91
2017-10-13T07:24:53.384Z,978.91
2017-10-13T07:25:53.376Z,978.92
2017-10-13T07:26:53.370Z,978.93
2017-10-13T07:27:53.363Z,978.92
2017-10-13T07:28:53.357Z,978.92
2017-10-13T07:29:53.351Z,978.93
2017-10-13T07:30:53.344Z,978.95
2017-10-13T07:31:53.337Z,978.97
2017-10-13T07:32:53.331Z,978.97
2017-10-13T07:33:53.329Z,978.97
2017-10-13T07:34:53.325Z,978.99
2017-10-13T07:35:53.312Z,978.99
2017-10-13T07:36:53.303Z,979
2017-10-13T07:37:53.298Z,979.01
2017-10-13T07:38:53.291Z,979.02
2017-10-13T07:39:53.288Z,979.03
2017-10-13T07:40:53.278Z,979.03
2017-10-13T07:41:53.271Z,979.03
2017-10-13T07:42:53.265Z,979.01
2017-10-13T07:43:53.258Z,979
2017-10-13T07:44:53.252Z,979
2017-10-13T07:45:53.246Z,979
2017-10-13T07:46:53.240Z,978.99
2017-10-13T07:47:53.233Z,979.01
2017-10-13T07:48:53.226Z,978.97
2017-10-13T07:49:53.220Z,978.99
2017-10-13T07:50:53.214Z,978.99
2017-10-13T07:51:53.206Z,978.99
2017-10-13T07:52:53.201Z,979
2017-10-13T07:53:53.193Z,978.98
2017-10-13T07:54:53.187Z,979.05
2017-10-13T07:55:53.180Z,979.03
2017-10-13T07:56:53.173Z,979.04
2017-10-13T07:57:53.167Z,979.06
2017-10-13T07:58:53.160Z,979.03
2017-10-13T07:59:53.157Z,979.02
2017-10-13T08:00:53.147Z,979.05
2017-10-13T08:01:53.142Z,979.03
2017-10-13T08:02:53.133Z,979
2017-10-13T08:03:53.128Z,979.02
2017-10-13T08:04:53.122Z,979.05
2017-10-13T08:05:53.116Z,979.02
2017-10-13T08:06:53.108Z,979.03
2017-10-13T08:07:53.108Z,979.04
2017-10-13T08:08:53.097Z,979.06
2017-10-13T08:09:53.088Z,979.04
2017-10-13T08:10:53.082Z,979.02
2017-10-13T08:11:53.075Z,979.01
2017-10-13T08:12:53.070Z,979.03
2017-10-13T08:13:53.063Z,979.02
2017-10-13T08:14:53.056Z,979.04
2017-10-13T08:15:53.050Z,979.04
2017-10-13T08:16:53.044Z,979.04
2017-10-13T08:17:53.037Z,979.03
2017-10-13T08:18:53.032Z,979.06
2017-10-13T08:19:53.026Z,979.05
2017-10-13T08:20:53.018Z,979.02
2017-10-13T08:21:53.013Z,979.06
2017-10-13T08:22:53.006Z,979.06
2017-10-13T08:23:52.998Z,979.05
2017-10-13T08:24:52.993Z,979.06
2017-10-13T08:25:52.985Z,979.08
2017-10-13T08:26:52.980Z,979.04
2017-10-13T08:27:52.973Z,979.1
2017-10-13T08:28:52.967Z,979.08
2017-10-13T08:29:52.961Z,979.08
2017-10-13T08:30:52.955Z,979.12
2017-10-13T08:31:52.946Z,979.09
2017-10-13T08:32:52.941Z,979.08
2017-10-13T08:33:52.935Z,979.06
2017-10-13T08:34:52.928Z,979.07
2017-10-13T08:35:52.921Z,979.08
2017-10-13T08:36:52.915Z,979.06
2017-10-13T08:37:52.910Z,979.11
2017-10-13T08:38:52.904Z,979.09
2017-10-13T08:39:52.896Z,979.08
2017-10-13T08:40:52.890Z,979.06
2017-10-13T08:41:52.883Z,979.04
2017-10-13T08:42:52.876Z,979.06
2017-10-13T08:43:52.871Z,979.08
2017-10-13T08:44:52.865Z,979.08
2017-10-13T08:45:52.858Z,979.05
2017-10-13T08:46:52.853Z,979.06
2017-10-13T08:47:52.846Z,979.06
2017-10-13T08:48:52.840Z,979.08
2017-10-13T08:49:52.834Z,979.04
2017-10-13T08:50:52.827Z,979.04
2017-10-13T08:51:52.821Z,979.07
2017-10-13T08:52:52.814Z,979.04
2017-10-13T08:53:52.808Z,979.01
2017-10-13T08:54:52.801Z,979.05
2017-10-13T08:55:52.796Z,979.01
2017-10-13T08:56:52.789Z,979.05
2017-10-13T08:57:52.782Z,979.04
2017-10-13T08:58:52.777Z,979.05
2017-10-13T08:59:52.769Z,979.04
2017-10-13T09:00:52.765Z,979
2017-10-13T09:01:52.760Z,979.01
2017-10-13T09:02:52.752Z,978.97
2017-10-13T09:03:52.747Z,979.01
2017-10-13T09:04:52.741Z,979
2017-10-13T09:05:52.735Z,979.01
2017-10-13T09:06:52.729Z,979
2017-10-13T09:07:52.749Z,978.98
2017-10-13T09:08:52.715Z,979
2017-10-13T09:09:52.708Z,978.99
2017-10-13T09:10:52.703Z,979.01
2017-10-13T09:11:52.696Z,979.02
2017-10-13T09:12:52.690Z,979.01
2017-10-13T09:13:52.684Z,978.99
2017-10-13T09:14:52.677Z,978.97
2017-10-13T09:15:52.672Z,979
2017-10-13T09:16:52.681Z,978.97
2017-10-13T09:17:52.661Z,978.98
2017-10-13T09:18:52.653Z,978.97
2017-10-13T09:19:52.648Z,978.97
2017-10-13T09:20:52.641Z,978.97
2017-10-13T09:21:52.637Z,978.96
2017-10-13T09:22:52.628Z,978.94
2017-10-13T09:23:52.620Z,978.98
2017-10-13T09:24:52.616Z,978.97
2017-10-13T09:25:52.610Z,978.97
2017-10-13T09:26:52.604Z,978.91
2017-10-13T09:27:52.599Z,978.91
2017-10-13T09:28:52.592Z,978.9
2017-10-13T09:29:52.585Z,978.94
2017-10-13T09:30:52.580Z,978.93
2017-10-13T09:31:52.574Z,978.92
2017-10-13T09:32:52.567Z,978.94
2017-10-13T09:33:52.560Z,978.92
2017-10-13T09:34:52.554Z,978.88
2017-10-13T09:35:52.561Z,978.89
2017-10-13T09:36:52.548Z,978.87
2017-10-13T09:37:52.537Z,978.88
2017-10-13T09:38:52.532Z,978.87
2017-10-13T09:39:52.533Z,978.82
2017-10-13T09:40:52.520Z,978.85
2017-10-13T09:41:52.512Z,978.83
2017-10-13T09:42:52.508Z,978.81
2017-10-13T09:43:52.501Z,978.82
2017-10-13T09:44:52.494Z,978.83
2017-10-13T09:45:52.488Z,978.78
2017-10-13T09:46:52.482Z,978.79
2017-10-13T09:47:52.477Z,978.81
2017-10-13T09:48:52.471Z,978.82
2017-10-13T09:49:52.465Z,978.78
2017-10-13T09:50:52.459Z,978.82
2017-10-13T09:51:52.454Z,978.79
2017-10-13T09:52:52.447Z,978.8
2017-10-13T09:53:52.446Z,978.78
2017-10-13T09:54:52.436Z,978.81
2017-10-13T09:55:52.428Z,978.76
2017-10-13T09:56:52.423Z,978.76
2017-10-13T09:57:52.416Z,978.76
2017-10-13T09:58:52.412Z,978.74
2017-10-13T09:59:52.405Z,978.77
2017-10-13T10:00:52.400Z,978.76
2017-10-13T10:01:52.400Z,978.78
2017-10-13T10:02:52.388Z,978.78
2017-10-13T10:03:52.380Z,978.77
2017-10-13T10:04:52.376Z,978.77
2017-10-13T10:05:52.372Z,978.76
2017-10-13T10:06:52.362Z,978.77
2017-10-13T10:07:52.357Z,978.77
2017-10-13T10:08:52.352Z,978.75
2017-10-13T10:09:52.344Z,978.77
2017-10-13T10:10:52.339Z,978.76
2017-10-13T10:11:52.335Z,978.79
2017-10-13T10:12:52.327Z,978.77
2017-10-13T10:13:52.323Z,978.71
2017-10-13T10:14:52.316Z,978.75
2017-10-13T10:15:52.310Z,978.71
2017-10-13T10:16:52.304Z,978.73
2017-10-13T10:17:52.296Z,978.76
2017-10-13T10:18:52.299Z,978.75
2017-10-13T10:19:52.285Z,978.73
2017-10-13T10:20:52.280Z,978.71
2017-10-13T10:21:52.275Z,978.7
2017-10-13T10:22:52.268Z,978.74
2017-10-13T10:23:52.261Z,978.7
2017-10-13T10:24:52.258Z,978.69
2017-10-13T10:25:52.251Z,978.7
2017-10-13T10:26:52.244Z,978.71
2017-10-13T10:27:52.239Z,978.68
2017-10-13T10:28:52.233Z,978.66
2017-10-13T10:29:52.226Z,978.67
2017-10-13T10:30:52.221Z,978.66
2017-10-13T10:31:52.214Z,978.68
2017-10-13T10:32:52.208Z,978.65
2017-10-13T10:33:52.203Z,978.64
2017-10-13T10:34:52.199Z,978.62
2017-10-13T10:35:52.191Z,978.62
2017-10-13T10:36:52.186Z,978.58
2017-10-13T10:37:52.180Z,978.58
2017-10-13T10:38:52.176Z,978.57
2017-10-13T10:39:52.169Z,978.57
2017-10-13T10:40:52.165Z,978.54
2017-10-13T10:41:52.157Z,978.53
2017-10-13T10:42:52.152Z,978.55
2017-10-13T10:43:52.146Z,978.58
2017-10-13T10:44:52.139Z,978.54
2017-10-13T10:45:52.134Z,978.58
2017-10-13T10:46:52.128Z,978.57
2017-10-13T10:47:52.121Z,978.55
2017-10-13T10:48:52.116Z,978.54
2017-10-13T10:49:52.110Z,978.53
2017-10-13T10:50:52.104Z,978.48
2017-10-13T10:51:52.099Z,978.51
2017-10-13T10:52:52.092Z,978.48
2017-10-13T10:53:52.086Z,978.49
2017-10-13T10:54:52.081Z,978.46
2017-10-13T10:55:52.076Z,978.46
2017-10-13T10:56:52.070Z,978.46
2017-10-13T10:57:52.062Z,978.43
2017-10-13T10:58:52.058Z,978.42
2017-10-13T10:59:52.052Z,978.41
2017-10-13T11:00:52.048Z,978.43
2017-10-13T11:01:52.040Z,978.4
2017-10-13T11:02:52.036Z,978.41
2017-10-13T11:03:52.028Z,978.41
2017-10-13T11:04:52.024Z,978.4
2017-10-13T11:05:52.017Z,978.37
2017-10-13T11:06:52.013Z,978.36
2017-10-13T11:07:52.006Z,978.34
2017-10-13T11:08:52.000Z,978.35
2017-10-13T11:09:51.995Z,978.36
2017-10-13T11:10:51.989Z,978.31
2017-10-13T11:11:51.994Z,978.34
2017-10-13T11:12:51.978Z,978.31
2017-10-13T11:13:51.978Z,978.33
2017-10-13T11:14:51.965Z,978.31
2017-10-13T11:15:51.959Z,978.29
2017-10-13T11:16:51.954Z,978.29
2017-10-13T11:17:51.948Z,978.24
2017-10-13T11:18:51.943Z,978.24
2017-10-13T11:19:51.935Z,978.27
2017-10-13T11:20:51.930Z,978.27
2017-10-13T11:21:51.925Z,978.25
2017-10-13T11:22:51.921Z,978.25
2017-10-13T11:23:51.913Z,978.23
2017-10-13T11:24:51.908Z,978.23
2017-10-13T11:25:51.901Z,978.21
2017-10-13T11:26:51.898Z,978.18
2017-10-13T11:27:51.890Z,978.16
2017-10-13T11:28:51.884Z,978.17
2017-10-13T11:29:51.879Z,978.12
2017-10-13T11:30:51.880Z,978.13
2017-10-13T11:31:51.866Z,978.09
2017-10-13T11:32:51.862Z,978.09
2017-10-13T11:33:51.856Z,978.11
2017-10-13T11:34:51.849Z,978.09
2017-10-13T11:35:51.845Z,978.11
2017-10-13T11:36:51.839Z,978.07
2017-10-13T11:37:51.834Z,978.08
2017-10-13T11:38:51.828Z,978.09
2017-10-13T11:39:51.821Z,978.04
2017-10-13T11:40:51.816Z,978.01
2017-10-13T11:41:51.812Z,978
2017-10-13T11:42:51.806Z,978.02
2017-10-13T11:43:51.799Z,978.02
2017-10-13T11:44:51.794Z,977.98
2017-10-13T11:45:51.786Z,978.01
2017-10-13T11:46:51.783Z,977.97
2017-10-13T11:47:51.776Z,977.94
2017-10-13T11:48:51.771Z,977.92
2017-10-13T11:49:51.765Z,977.9
2017-10-13T11:50:51.758Z,977.96
2017-10-13T11:51:51.753Z,977.93
2017-10-13T11:52:51.748Z,977.91
2017-10-13T11:53:51.742Z,977.9
2017-10-13T11:54:51.737Z,977.91
2017-10-13T11:55:51.732Z,977.86
2017-10-13T11:56:51.725Z,977.84
2017-10-13T11:57:51.720Z,977.88
2017-10-13T11:58:51.715Z,977.88
2017-10-13T11:59:51.709Z,977.89
2017-10-13T12:00:51.703Z,977.89
2017-10-13T12:01:51.696Z,977.89
2017-10-13T12:02:51.692Z,977.86
2017-10-13T12:03:51.686Z,977.86
2017-10-13T12:04:51.679Z,977.86
2017-10-13T12:05:51.675Z,977.85
2017-10-13T12:06:51.669Z,977.81
2017-10-13T12:07:51.662Z,977.82
2017-10-13T12:08:51.659Z,977.82
2017-10-13T12:09:51.652Z,977.8
2017-10-13T12:10:51.647Z,977.77
2017-10-13T12:11:51.641Z,977.78
2017-10-13T12:12:51.635Z,977.77
2017-10-13T12:13:51.631Z,977.77
2017-10-13T12:14:51.623Z,977.78
2017-10-13T12:15:51.619Z,977.78
2017-10-13T12:16:51.612Z,977.74
2017-10-13T12:17:51.610Z,977.75
2017-10-13T12:18:51.601Z,977.77
2017-10-13T12:19:51.597Z,977.74
2017-10-13T12:20:51.590Z,977.74
2017-10-13T12:21:51.585Z,977.72
2017-10-13T12:22:51.580Z,977.7
2017-10-13T12:23:51.575Z,977.7
2017-10-13T12:24:51.568Z,977.7
2017-10-13T12:25:51.562Z,977.68
2017-10-13T12:26:51.556Z,977.67
2017-10-13T12:27:51.551Z,977.71
2017-10-13T12:28:51.546Z,977.68
2017-10-13T12:29:51.539Z,977.7
2017-10-13T12:30:51.534Z,977.67
2017-10-13T12:31:51.530Z,977.68
2017-10-13T12:32:51.523Z,977.65
2017-10-13T12:33:51.516Z,977.63
2017-10-13T12:34:51.513Z,977.6